Time;durP1;ratioP1;P1;durP2;ratioP2;P2;SDS_P1;SDS_P2;PMS_P1;PMS_P2;Temp;Humidity;BMP_temperature;BMP_pressure;BME280_temperature;BME280_humidity;BME280_pressure;Samples;Min_cycle;Max_cycle;Signal;HPM_P1;HPM_P2
2022/06/21 00:01:48;;;;;;;1.30;1.20;;;24.20;51.00;;;;;;5031627;28;20184;-69
2022/06/21 00:04:14;;;;;;;1.30;1.17;;;24.20;51.00;;;;;;5033091;28;20192;-69
2022/06/21 00:06:42;;;;;;;1.38;1.20;;;24.10;50.70;;;;;;5031859;28;20199;-69
2022/06/21 00:09:12;;;;;;;1.85;1.20;;;24.10;50.90;;;;;;5031511;28;20207;-69
2022/06/21 00:11:38;;;;;;;1.30;1.20;;;24.10;50.90;;;;;;5032815;28;20188;-69
2022/06/21 00:14:06;;;;;;;1.77;1.30;;;24.10;50.80;;;;;;5031585;28;20212;-69
2022/06/21 00:16:35;;;;;;;1.55;1.33;;;24.10;50.90;;;;;;5031357;28;20595;-69
2022/06/21 00:19:02;;;;;;;1.13;1.10;;;24.10;51.00;;;;;;5031427;28;20200;-69
2022/06/21 00:21:36;;;;;;;1.58;1.25;;;24.10;51.20;;;;;;5031456;28;20673;-69
2022/06/21 00:24:03;;;;;;;1.05;1.00;;;24.10;51.20;;;;;;5031449;28;20548;-69
2022/06/21 00:26:31;;;;;;;0.90;0.90;;;24.10;51.10;;;;;;5032584;28;20212;-69
2022/06/21 00:28:58;;;;;;;1.35;1.13;;;24.00;51.30;;;;;;5031482;28;20203;-69
2022/06/21 00:31:27;;;;;;;2.17;1.40;;;24.00;51.20;;;;;;5034873;28;20227;-69
2022/06/21 00:33:56;;;;;;;1.38;1.27;;;24.00;51.30;;;;;;5035014;28;20588;-69
2022/06/21 00:36:24;;;;;;;1.15;1.00;;;24.00;51.30;;;;;;5034683;28;20223;-69
2022/06/21 00:38:51;;;;;;;1.00;1.00;;;24.00;51.30;;;;;;5034849;28;20200;-70
2022/06/21 00:41:20;;;;;;;1.25;1.13;;;24.00;51.50;;;;;;5034903;28;20242;-69
2022/06/21 00:43:49;;;;;;;1.85;1.30;;;24.00;51.50;;;;;;5036346;28;20609;-69
2022/06/21 00:46:22;;;;;;;1.30;1.20;;;24.00;51.40;;;;;;5034698;28;20282;-69
2022/06/21 00:48:49;;;;;;;1.35;1.25;;;23.90;51.30;;;;;;5034698;28;20626;-69
2022/06/21 00:51:20;;;;;;;1.13;1.13;;;23.90;51.20;;;;;;5034593;28;20596;-69
2022/06/21 00:53:49;;;;;;;1.10;1.10;;;23.90;51.20;;;;;;5034745;28;20278;-69
2022/06/21 00:56:18;;;;;;;1.70;1.40;;;23.90;51.30;;;;;;5034429;28;20243;-69
2022/06/21 00:58:45;;;;;;;2.45;1.33;;;23.90;51.40;;;;;;5034641;28;20192;-69
2022/06/21 01:01:15;;;;;;;1.20;1.00;;;23.90;51.30;;;;;;5034619;28;20660;-69
2022/06/21 01:03:45;;;;;;;1.20;1.20;;;23.90;51.40;;;;;;5034460;28;20598;-69
2022/06/21 01:06:18;;;;;;;2.00;1.35;;;23.80;51.50;;;;;;5034280;28;20224;-69
2022/06/21 01:08:49;;;;;;;1.92;1.20;;;23.80;51.50;;;;;;5035881;28;20276;-69
2022/06/21 01:11:18;;;;;;;1.30;1.20;;;23.80;51.50;;;;;;5034312;28;20290;-69
2022/06/21 01:13:47;;;;;;;1.20;1.10;;;23.80;51.60;;;;;;5035512;28;20218;-69
2022/06/21 01:16:14;;;;;;;1.45;0.98;;;23.70;51.60;;;;;;5034247;28;20719;-69
2022/06/21 01:18:42;;;;;;;1.38;1.27;;;23.70;51.60;;;;;;5035895;28;20192;-69
2022/06/21 01:21:09;;;;;;;2.00;1.25;;;23.70;51.70;;;;;;5034196;28;20246;-69
2022/06/21 01:23:43;;;;;;;1.08;1.00;;;23.70;51.80;;;;;;5034251;28;20697;-68
2022/06/21 01:26:32;;;;;;;1.30;1.20;;;23.70;51.80;;;;;;5034661;28;20220;-69
2022/06/21 01:28:59;;;;;;;1.02;1.00;;;23.70;51.80;;;;;;5034089;28;20565;-69
2022/06/21 01:31:27;;;;;;;1.00;1.00;;;23.60;51.60;;;;;;5034143;28;20208;-68
2022/06/21 01:33:54;;;;;;;1.20;1.10;;;23.60;51.60;;;;;;5034195;28;20586;-69
2022/06/21 01:36:23;;;;;;;1.30;1.20;;;23.60;51.60;;;;;;5033858;28;20224;-69
2022/06/21 01:38:52;;;;;;;1.33;1.10;;;23.50;51.60;;;;;;5033982;28;20287;-69
2022/06/21 01:41:21;;;;;;;1.25;1.15;;;23.50;51.60;;;;;;5032966;28;20205;-69
2022/06/21 01:43:51;;;;;;;2.67;1.25;;;23.60;51.80;;;;;;5033726;28;20573;-69
2022/06/21 01:46:20;;;;;;;1.25;1.10;;;23.50;51.70;;;;;;5033961;28;20715;-69
2022/06/21 01:48:49;;;;;;;1.20;1.20;;;23.50;51.60;;;;;;5033739;28;20196;-69
2022/06/21 01:51:21;;;;;;;1.67;1.20;;;23.50;51.60;;;;;;5033836;28;20192;-69
2022/06/21 01:53:48;;;;;;;1.45;1.30;;;23.50;51.50;;;;;;5033631;28;20287;-69
2022/06/21 01:56:16;;;;;;;2.50;1.10;;;23.50;51.60;;;;;;5033612;28;20750;-69
2022/06/21 01:58:45;;;;;;;1.42;1.15;;;23.50;51.60;;;;;;5034799;28;20708;-69
2022/06/21 02:01:17;;;;;;;1.08;0.98;;;23.50;51.70;;;;;;5033640;28;20557;-69
2022/06/21 02:03:44;;;;;;;1.38;1.20;;;23.50;51.60;;;;;;5033668;28;20200;-69
2022/06/21 02:06:12;;;;;;;1.33;1.23;;;23.40;51.60;;;;;;5033673;28;20224;-69
2022/06/21 02:08:41;;;;;;;1.10;1.10;;;23.40;51.50;;;;;;5033803;28;20727;-69
2022/06/21 02:11:11;;;;;;;2.00;1.25;;;23.40;51.70;;;;;;5033623;28;20199;-69
2022/06/21 02:13:41;;;;;;;1.35;1.25;;;23.40;51.60;;;;;;5035958;28;20219;-69
2022/06/21 02:16:08;;;;;;;1.40;1.30;;;23.40;51.60;;;;;;5034610;28;20273;-69
2022/06/21 02:18:38;;;;;;;1.67;1.02;;;23.40;51.80;;;;;;5034476;28;20239;-69
2022/06/21 02:21:08;;;;;;;1.30;1.20;;;23.40;51.70;;;;;;5033962;28;20661;-69
2022/06/21 02:23:35;;;;;;;2.45;1.27;;;23.40;51.70;;;;;;5035128;28;20643;-69
2022/06/21 02:26:02;;;;;;;1.23;1.13;;;23.30;51.60;;;;;;5035126;28;20609;-69
2022/06/21 02:28:29;;;;;;;1.58;1.10;;;23.30;51.60;;;;;;5033501;28;20192;-68
2022/06/21 02:30:57;;;;;;;1.60;1.00;;;23.30;51.60;;;;;;5033220;28;20231;-69
2022/06/21 02:33:25;;;;;;;1.08;1.00;;;23.30;51.70;;;;;;5033122;28;20195;-69
2022/06/21 02:35:54;;;;;;;1.50;1.20;;;23.30;51.60;;;;;;5033132;28;20303;-69
2022/06/21 02:38:23;;;;;;;1.30;1.20;;;23.30;51.60;;;;;;5032863;28;20310;-69
2022/06/21 02:40:52;;;;;;;1.23;1.05;;;23.30;51.60;;;;;;5033059;28;20676;-69
2022/06/21 02:43:21;;;;;;;1.30;1.20;;;23.20;51.60;;;;;;5034303;28;20223;-69
2022/06/21 02:45:49;;;;;;;0.90;0.90;;;23.20;51.60;;;;;;5032708;28;20212;-69
2022/06/21 02:48:18;;;;;;;1.42;1.20;;;23.20;51.70;;;;;;5032625;28;20192;-69
2022/06/21 02:50:47;;;;;;;1.17;1.10;;;23.20;51.80;;;;;;5032762;28;20200;-69
2022/06/21 02:53:17;;;;;;;1.20;1.10;;;23.10;51.60;;;;;;5033832;28;20191;-69
2022/06/21 02:58:33;;;;;;;1.77;1.10;;;23.10;51.70;;;;;;5090072;23;20705;-70
2022/06/21 03:01:00;;;;;;;1.10;1.10;;;23.10;51.80;;;;;;4993540;28;20205;-71
2022/06/21 03:03:28;;;;;;;1.10;1.00;;;23.10;51.60;;;;;;5010162;28;20201;-70
2022/06/21 03:05:57;;;;;;;1.88;1.10;;;23.10;51.80;;;;;;4993490;28;20217;-70
2022/06/21 03:08:25;;;;;;;1.25;1.15;;;23.10;51.70;;;;;;4994517;28;20347;-71
2022/06/21 03:10:52;;;;;;;1.20;1.10;;;23.10;51.40;;;;;;4993232;28;20232;-71
2022/06/21 03:13:21;;;;;;;1.10;1.00;;;23.10;51.40;;;;;;4993391;28;20210;-71
2022/06/21 03:15:50;;;;;;;1.10;1.10;;;23.10;51.50;;;;;;4993410;28;20655;-71
2022/06/21 03:18:20;;;;;;;1.50;1.15;;;23.20;51.50;;;;;;4994274;28;20233;-71
2022/06/21 03:20:47;;;;;;;1.10;1.10;;;23.10;51.20;;;;;;4993066;28;20264;-70
2022/06/21 03:23:14;;;;;;;1.95;1.15;;;23.20;51.30;;;;;;4992934;28;20207;-71
2022/06/21 03:25:46;;;;;;;1.13;0.90;;;23.20;51.20;;;;;;4992977;28;20245;-70
2022/06/21 03:28:22;;;;;;;1.23;1.10;;;23.20;51.20;;;;;;4993162;28;20186;-71
2022/06/21 03:30:49;;;;;;;1.27;1.17;;;23.20;51.10;;;;;;4992845;28;20611;-71
2022/06/21 03:33:16;;;;;;;1.00;1.00;;;23.20;51.20;;;;;;4992672;28;20752;-70
2022/06/21 03:35:43;;;;;;;1.20;1.10;;;23.20;50.90;;;;;;4992762;28;20222;-71
2022/06/21 03:38:11;;;;;;;1.95;1.27;;;23.30;50.90;;;;;;4992715;28;20240;-71
2022/06/21 03:43:26;;;;;;;1.98;0.90;;;23.30;50.80;;;;;;4992865;28;20177;-71
2022/06/21 03:45:54;;;;;;;1.23;1.13;;;23.30;50.80;;;;;;4992959;28;20244;-70
2022/06/21 03:48:23;;;;;;;1.17;0.90;;;23.30;50.90;;;;;;4993034;28;20217;-71
2022/06/21 03:50:53;;;;;;;1.88;1.20;;;23.30;51.00;;;;;;4994284;28;20569;-71
2022/06/21 03:53:24;;;;;;;1.88;1.10;;;23.30;51.00;;;;;;4993293;28;20198;-71
2022/06/21 03:55:54;;;;;;;1.88;1.10;;;23.30;51.10;;;;;;4992999;28;20232;-71
2022/06/21 03:58:28;;;;;;;1.17;1.05;;;23.30;51.10;;;;;;4993218;28;20283;-71
2022/06/21 04:00:59;;;;;;;1.25;1.08;;;23.30;51.00;;;;;;4993006;28;20201;-71
2022/06/21 04:03:27;;;;;;;1.20;1.10;;;23.30;50.90;;;;;;4992410;28;20197;-71
2022/06/21 04:05:55;;;;;;;1.30;1.20;;;23.30;51.00;;;;;;4995362;28;20227;-71
2022/06/21 04:08:24;;;;;;;1.35;1.25;;;23.30;51.00;;;;;;4997960;28;20189;-71
2022/06/21 04:10:54;;;;;;;1.38;1.30;;;23.40;51.00;;;;;;4996365;28;20574;-71
2022/06/21 04:13:23;;;;;;;1.38;1.27;;;23.40;51.00;;;;;;4996427;28;20268;-71
2022/06/21 04:15:54;;;;;;;1.40;1.30;;;23.30;50.90;;;;;;4996699;28;20594;-71
2022/06/21 04:18:23;;;;;;;1.25;1.13;;;23.40;50.90;;;;;;4996296;28;20592;-71
2022/06/21 04:20:52;;;;;;;1.80;1.23;;;23.40;50.80;;;;;;4996150;28;20205;-71
2022/06/21 04:23:21;;;;;;;1.20;1.10;;;23.40;51.10;;;;;;4997380;28;20192;-71
2022/06/21 04:25:55;;;;;;;1.23;1.13;;;23.40;51.10;;;;;;4996131;28;20233;-71
2022/06/21 04:28:24;;;;;;;2.13;1.30;;;23.40;51.10;;;;;;4997074;28;20526;-71
2022/06/21 04:30:56;;;;;;;1.48;1.38;;;23.40;50.90;;;;;;4995791;28;20623;-71
2022/06/21 04:33:25;;;;;;;1.48;1.20;;;23.40;50.90;;;;;;4997418;28;20181;-71
2022/06/21 04:35:54;;;;;;;1.27;1.17;;;23.50;51.10;;;;;;4995924;28;20213;-71
2022/06/21 04:38:24;;;;;;;1.35;1.10;;;23.50;51.10;;;;;;4996694;28;20216;-71
2022/06/21 04:40:56;;;;;;;1.60;1.23;;;23.50;51.20;;;;;;4995592;28;20198;-71
2022/06/21 04:43:25;;;;;;;2.13;1.30;;;23.50;51.10;;;;;;4995375;28;20228;-71
2022/06/21 04:45:56;;;;;;;2.30;1.42;;;23.60;51.20;;;;;;4995374;28;20701;-71
2022/06/21 04:48:29;;;;;;;1.65;1.20;;;23.70;51.10;;;;;;4995365;28;20201;-71
2022/06/21 04:50:59;;;;;;;1.20;1.10;;;23.70;51.20;;;;;;4995397;28;20284;-71
2022/06/21 04:53:29;;;;;;;1.35;1.20;;;23.80;51.10;;;;;;4995337;28;20203;-71
2022/06/21 04:55:59;;;;;;;1.40;1.30;;;23.90;50.80;;;;;;4995185;28;20222;-71
2022/06/21 04:58:26;;;;;;;2.25;1.17;;;24.00;50.70;;;;;;4995104;28;20230;-71
2022/06/21 05:00:55;;;;;;;1.75;1.17;;;24.00;50.30;;;;;;4996391;28;20248;-71
2022/06/21 05:03:32;;;;;;;1.65;1.33;;;24.20;50.30;;;;;;4995022;28;20251;-71
2022/06/21 05:06:00;;;;;;;1.70;1.40;;;24.20;50.30;;;;;;4994818;28;20303;-71
2022/06/21 05:08:27;;;;;;;1.30;1.20;;;24.30;50.00;;;;;;4996180;28;20568;-71
2022/06/21 05:10:55;;;;;;;1.63;1.20;;;24.40;50.00;;;;;;4996164;28;20232;-71
2022/06/21 05:13:24;;;;;;;1.27;1.10;;;24.50;49.50;;;;;;4994977;28;20661;-71
2022/06/21 05:15:51;;;;;;;1.30;1.20;;;24.50;49.50;;;;;;4994944;28;20285;-71
2022/06/21 05:18:23;;;;;;;1.83;1.30;;;24.50;49.40;;;;;;4994590;28;20317;-71
2022/06/21 05:20:52;;;;;;;1.45;1.35;;;24.60;48.10;;;;;;4995223;28;20208;-71
2022/06/21 05:23:19;;;;;;;1.42;1.30;;;24.70;48.70;;;;;;4996116;28;20279;-71
2022/06/21 05:25:46;;;;;;;1.42;1.20;;;24.80;48.50;;;;;;4994944;28;20218;-71
2022/06/21 05:28:15;;;;;;;1.55;1.15;;;24.90;48.20;;;;;;4994671;28;20201;-71
2022/06/21 05:30:43;;;;;;;1.65;1.50;;;24.90;47.90;;;;;;4994694;28;20201;-71
2022/06/21 05:33:13;;;;;;;1.40;1.30;;;25.00;48.20;;;;;;4994469;28;20197;-71
2022/06/21 05:35:41;;;;;;;1.20;1.10;;;25.00;48.00;;;;;;4994438;28;20225;-72
2022/06/21 05:38:11;;;;;;;2.78;1.40;;;25.10;47.60;;;;;;5165784;23;20238;-70
2022/06/21 05:40:41;;;;;;;2.75;1.55;;;25.20;47.40;;;;;;5034847;28;20184;-70
2022/06/21 05:43:11;;;;;;;3.05;1.60;;;25.30;46.10;;;;;;5033757;28;20192;-71
2022/06/21 05:45:39;;;;;;;3.15;1.70;;;25.40;45.00;;;;;;5117278;22;20250;-71
2022/06/21 05:48:09;;;;;;;2.50;1.67;;;25.40;44.20;;;;;;5014417;28;20255;-72
2022/06/21 05:50:36;;;;;;;5.25;2.00;;;25.30;42.30;;;;;;5014307;28;20550;-71
2022/06/21 05:53:13;;;;;;;4.70;1.92;;;25.20;40.70;;;;;;5014155;28;20207;-72
2022/06/21 05:55:42;;;;;;;1.98;1.65;;;25.10;39.40;;;;;;5015228;28;20267;-71
2022/06/21 05:58:16;;;;;;;5.63;2.20;;;24.90;41.10;;;;;;5014814;28;20213;-71
2022/06/21 06:00:44;;;;;;;5.32;2.28;;;24.90;38.70;;;;;;5015082;28;20189;-71
2022/06/21 06:03:14;;;;;;;3.78;2.00;;;24.70;39.10;;;;;;5014607;28;20230;-71
2022/06/21 06:05:43;;;;;;;4.57;2.10;;;24.70;39.10;;;;;;5013505;28;20205;-72
2022/06/21 06:08:12;;;;;;;3.00;1.73;;;24.60;39.00;;;;;;5015050;28;20213;-71
2022/06/21 06:10:41;;;;;;;3.67;2.00;;;24.50;38.80;;;;;;5013409;28;20219;-71
2022/06/21 06:13:10;;;;;;;4.05;2.10;;;24.50;38.00;;;;;;5013821;28;20197;-71
2022/06/21 06:15:40;;;;;;;2.20;1.60;;;24.30;39.20;;;;;;5013486;28;20201;-71
2022/06/21 06:18:10;;;;;;;3.42;1.60;;;24.20;40.20;;;;;;5409231;23;21186;-72
2022/06/21 06:20:39;;;;;;;3.47;2.05;;;24.30;40.40;;;;;;4993237;28;20205;-71
2022/06/21 06:23:08;;;;;;;2.72;1.80;;;24.40;40.80;;;;;;4993627;28;20197;-72
2022/06/21 06:25:40;;;;;;;3.67;2.00;;;24.50;40.40;;;;;;4993755;28;20197;-72
2022/06/21 06:28:11;;;;;;;2.28;1.77;;;24.70;40.40;;;;;;4993595;28;20223;-71
2022/06/21 06:30:44;;;;;;;3.40;1.75;;;24.90;40.30;;;;;;5035202;23;20541;-67
2022/06/21 06:33:17;;;;;;;2.05;1.60;;;25.10;40.00;;;;;;5015435;28;20181;-67
2022/06/21 06:35:45;;;;;;;2.92;1.70;;;25.40;39.60;;;;;;5015231;28;20193;-67
2022/06/21 06:38:13;;;;;;;2.45;1.48;;;25.60;38.90;;;;;;5013892;28;20223;-67
2022/06/21 06:40:44;;;;;;;2.85;1.50;;;25.80;38.10;;;;;;5015794;28;20209;-67
2022/06/21 06:43:13;;;;;;;1.63;1.30;;;26.00;37.80;;;;;;5014771;28;20197;-67
2022/06/21 06:45:40;;;;;;;3.22;1.50;;;26.20;37.60;;;;;;5013787;28;20203;-67
2022/06/21 06:48:29;;;;;;;2.00;1.35;;;26.30;37.20;;;;;;5014876;28;20264;-66
2022/06/21 06:50:59;;;;;;;2.75;1.40;;;26.50;37.40;;;;;;5013201;28;20220;-67
2022/06/21 06:53:30;;;;;;;3.75;1.95;;;26.60;37.60;;;;;;5013639;28;20201;-65
2022/06/21 06:56:20;;;;;;;1.73;1.38;;;26.80;37.80;;;;;;5015248;28;20187;-66
2022/06/21 06:59:08;;;;;;;2.28;1.42;;;27.00;37.80;;;;;;5014174;28;20805;-66
2022/06/21 07:01:43;;;;;;;1.95;1.60;;;27.10;37.60;;;;;;5013851;28;20219;-66
2022/06/21 07:04:11;;;;;;;2.55;1.35;;;27.20;37.70;;;;;;5012759;28;20231;-66
2022/06/21 07:06:42;;;;;;;3.13;1.50;;;27.30;37.80;;;;;;5012565;28;20731;-65
2022/06/21 07:09:13;;;;;;;2.38;1.40;;;27.50;37.70;;;;;;5012670;28;20272;-66
2022/06/21 07:11:49;;;;;;;1.73;1.52;;;27.50;37.60;;;;;;5014387;28;20212;-67
2022/06/21 07:14:19;;;;;;;3.13;1.70;;;27.60;37.70;;;;;;5012810;28;20198;-66
2022/06/21 07:16:46;;;;;;;1.88;1.38;;;27.70;37.70;;;;;;5012674;28;20207;-66
2022/06/21 07:19:13;;;;;;;2.25;1.63;;;27.80;37.70;;;;;;5012664;28;20218;-66
2022/06/21 07:21:40;;;;;;;1.83;1.40;;;27.80;37.70;;;;;;5012755;28;20742;-66
2022/06/21 07:24:09;;;;;;;1.35;1.25;;;27.80;37.70;;;;;;5012535;28;20215;-66
2022/06/21 07:26:39;;;;;;;1.83;1.40;;;27.90;37.80;;;;;;5012470;28;20203;-66
2022/06/21 07:29:31;;;;;;;2.55;1.48;;;27.80;37.90;;;;;;5013728;28;20180;-66
2022/06/21 07:32:00;;;;;;;2.20;1.40;;;27.80;38.20;;;;;;5012169;28;20709;-66
2022/06/21 07:34:31;;;;;;;1.63;1.30;;;27.70;38.40;;;;;;5012671;28;20708;-66
2022/06/21 07:37:00;;;;;;;2.63;1.58;;;27.70;38.70;;;;;;5012345;28;20251;-65
2022/06/21 07:39:29;;;;;;;1.45;1.30;;;27.70;38.80;;;;;;5012875;28;20252;-66
2022/06/21 07:41:58;;;;;;;1.55;1.45;;;27.80;38.70;;;;;;5016377;28;20327;-66
2022/06/21 07:44:27;;;;;;;1.63;1.20;;;27.80;38.60;;;;;;5016610;28;20196;-66
2022/06/21 07:46:59;;;;;;;3.42;1.60;;;27.70;38.70;;;;;;5016462;28;20575;-66
2022/06/21 07:49:29;;;;;;;1.52;1.40;;;27.70;39.50;;;;;;5018235;28;20207;-67
2022/06/21 07:51:59;;;;;;;1.20;1.10;;;27.70;39.10;;;;;;5019834;28;20563;-66
2022/06/21 07:54:29;;;;;;;1.60;1.50;;;27.60;39.20;;;;;;5016825;28;20688;-66
2022/06/21 07:56:57;;;;;;;3.33;1.40;;;27.50;39.30;;;;;;5017908;28;20192;-67
2022/06/21 07:59:26;;;;;;;1.75;1.30;;;27.40;39.70;;;;;;5016909;28;20216;-66
2022/06/21 08:07:39;;;;;;;1.48;1.23;;;27.20;40.30;;;;;;4993484;28;20250;-66
2022/06/21 08:10:08;;;;;;;1.38;1.27;;;27.20;40.20;;;;;;5017604;28;20250;-66
2022/06/21 08:12:35;;;;;;;3.17;1.35;;;27.30;40.10;;;;;;5015810;28;20227;-66
2022/06/21 08:15:03;;;;;;;1.40;1.30;;;27.50;40.00;;;;;;5016977;28;20192;-66
2022/06/21 08:17:36;;;;;;;2.53;1.40;;;27.50;39.90;;;;;;5016854;28;20192;-66
2022/06/21 08:20:05;;;;;;;1.30;1.20;;;27.60;39.80;;;;;;5017079;28;20275;-65
2022/06/21 08:22:34;;;;;;;1.67;1.38;;;27.50;39.90;;;;;;5015551;28;20688;-64
2022/06/21 08:25:07;;;;;;;1.45;1.30;;;27.50;40.10;;;;;;5017123;28;20238;-66
2022/06/21 08:27:36;;;;;;;2.25;1.30;;;27.40;40.20;;;;;;5015580;28;20279;-67
2022/06/21 08:30:10;;;;;;;1.75;1.33;;;27.30;40.30;;;;;;5016349;28;20188;-67
2022/06/21 08:32:41;;;;;;;1.33;1.23;;;27.20;40.50;;;;;;5015450;28;20577;-66
2022/06/21 08:35:12;;;;;;;2.00;1.40;;;27.20;40.90;;;;;;5015335;28;20228;-66
2022/06/21 08:37:42;;;;;;;1.40;1.30;;;27.10;41.10;;;;;;5015209;28;20200;-65
2022/06/21 08:40:29;;;;;;;1.63;1.27;;;27.10;41.20;;;;;;5016642;28;20664;-66
2022/06/21 08:43:26;;;;;;;1.40;1.30;;;27.10;41.40;;;;;;5016297;28;20180;-66
2022/06/21 08:46:11;;;;;;;1.33;1.23;;;27.10;41.50;;;;;;4995534;28;20234;-66
2022/06/21 08:49:04;;;;;;;1.40;1.30;;;27.10;41.70;;;;;;5015339;28;20235;-66
2022/06/21 08:51:51;;;;;;;1.65;1.50;;;27.00;41.70;;;;;;5028649;28;20282;-66
2022/06/21 08:54:25;;;;;;;1.45;1.35;;;27.00;41.80;;;;;;5016534;28;20208;-66
2022/06/21 08:56:56;;;;;;;1.17;1.10;;;26.90;41.80;;;;;;5014974;28;20230;-66
2022/06/21 08:59:27;;;;;;;1.40;1.30;;;26.90;42.00;;;;;;5014791;28;20208;-66
2022/06/21 09:02:01;;;;;;;2.00;1.25;;;26.90;42.90;;;;;;5016064;28;20219;-66
2022/06/21 09:04:40;;;;;;;1.77;1.20;;;26.80;42.40;;;;;;5014876;28;20198;-65
2022/06/21 09:07:34;;;;;;;1.73;1.25;;;26.70;42.40;;;;;;5014837;28;20211;-67
2022/06/21 09:10:13;;;;;;;1.38;1.27;;;26.70;42.60;;;;;;5016082;28;20189;-67
2022/06/21 09:12:47;;;;;;;1.40;1.30;;;26.70;42.80;;;;;;5015094;28;20551;-66
2022/06/21 09:15:30;;;;;;;1.50;1.40;;;26.70;42.80;;;;;;5014819;28;20290;-65
2022/06/21 09:18:04;;;;;;;1.40;1.30;;;26.70;43.00;;;;;;5015250;28;20196;-66
2022/06/21 09:20:38;;;;;;;1.73;1.48;;;26.70;43.00;;;;;;5014383;28;20722;-66
2022/06/21 09:23:07;;;;;;;1.20;1.10;;;26.70;43.00;;;;;;5014484;28;20192;-66
2022/06/21 09:25:42;;;;;;;1.25;1.15;;;26.70;42.90;;;;;;5014522;28;20203;-67
2022/06/21 09:28:11;;;;;;;1.50;1.40;;;26.70;42.90;;;;;;5015892;28;20552;-67
2022/06/21 09:30:41;;;;;;;1.42;1.30;;;26.80;43.00;;;;;;5016101;28;20335;-66
2022/06/21 09:33:11;;;;;;;1.25;1.15;;;26.70;43.00;;;;;;5015362;28;20311;-66
2022/06/21 09:35:46;;;;;;;1.65;1.55;;;26.80;42.80;;;;;;5016225;28;20308;-66
2022/06/21 09:38:19;;;;;;;1.50;1.38;;;26.90;42.70;;;;;;5014564;28;20563;-66
2022/06/21 09:40:48;;;;;;;1.40;1.30;;;27.00;42.60;;;;;;5014352;28;20601;-67
2022/06/21 09:43:21;;;;;;;1.30;1.20;;;27.20;42.30;;;;;;5014131;28;20206;-66
2022/06/21 09:45:51;;;;;;;1.42;1.33;;;27.30;42.10;;;;;;5015771;28;20254;-66
2022/06/21 09:48:21;;;;;;;1.20;1.10;;;27.40;41.90;;;;;;5015244;28;20192;-66
2022/06/21 09:50:55;;;;;;;2.47;1.40;;;27.50;41.70;;;;;;5014006;28;20220;-66
2022/06/21 09:53:26;;;;;;;1.85;1.30;;;27.60;41.50;;;;;;5013884;28;20638;-66
2022/06/21 09:55:57;;;;;;;1.20;1.10;;;27.60;41.40;;;;;;5014114;28;20226;-66
2022/06/21 09:58:27;;;;;;;1.30;1.20;;;27.70;41.30;;;;;;5013849;28;20192;-66
2022/06/21 10:00:58;;;;;;;1.52;1.20;;;27.80;41.20;;;;;;5013461;28;20310;-66
2022/06/21 10:03:32;;;;;;;2.25;1.30;;;27.70;41.20;;;;;;5012901;28;20279;-67
2022/06/21 10:06:03;;;;;;;1.98;1.40;;;27.70;41.20;;;;;;5014954;28;20185;-66
2022/06/21 10:08:40;;;;;;;1.27;1.10;;;27.80;41.10;;;;;;5013625;28;20212;-65
2022/06/21 10:11:11;;;;;;;1.20;1.10;;;27.80;41.40;;;;;;5013694;28;20278;-66
2022/06/21 10:13:53;;;;;;;1.30;1.20;;;27.80;41.20;;;;;;5014005;28;20204;-66
2022/06/21 10:16:39;;;;;;;2.63;1.35;;;27.80;41.30;;;;;;5014679;28;20657;-66
2022/06/21 10:19:13;;;;;;;1.45;1.33;;;27.80;41.30;;;;;;5014760;28;20168;-65
2022/06/21 10:22:01;;;;;;;1.38;1.27;;;27.80;41.30;;;;;;5014652;28;20207;-66
2022/06/21 10:25:04;;;;;;;1.20;1.10;;;27.80;41.40;;;;;;5013462;28;20188;-67
2022/06/21 10:27:41;;;;;;;1.58;1.30;;;27.70;41.40;;;;;;4973519;28;20557;-66
2022/06/21 10:30:26;;;;;;;1.40;1.30;;;27.70;41.50;;;;;;5013159;28;20671;-66
2022/06/21 10:33:11;;;;;;;1.02;1.02;;;27.70;41.60;;;;;;5014978;28;20617;-66
2022/06/21 10:35:47;;;;;;;1.58;1.48;;;27.70;41.70;;;;;;5015026;28;20227;-66
2022/06/21 10:38:28;;;;;;;1.05;1.05;;;27.60;41.70;;;;;;5014203;28;20585;-66
2022/06/21 10:41:05;;;;;;;1.58;1.30;;;27.60;41.80;;;;;;5012892;28;20323;-66
2022/06/21 10:43:50;;;;;;;1.20;1.20;;;27.60;41.90;;;;;;5013092;28;20192;-66
2022/06/21 10:46:20;;;;;;;1.33;1.13;;;27.60;42.00;;;;;;5014691;28;20207;-65
2022/06/21 10:49:05;;;;;;;1.20;1.10;;;27.60;42.20;;;;;;5014604;28;20199;-66
2022/06/21 10:51:53;;;;;;;1.25;1.15;;;27.50;42.20;;;;;;5014049;28;20735;-67
2022/06/21 10:54:36;;;;;;;1.40;1.30;;;27.50;42.20;;;;;;5010758;28;20262;-66
2022/06/21 10:57:11;;;;;;;1.08;1.08;;;27.50;42.40;;;;;;5012781;28;20193;-66
2022/06/21 11:02:42;;;;;;;1.30;1.20;;;27.40;42.50;;;;;;5014189;28;20192;-65
2022/06/21 11:05:11;;;;;;;1.33;1.23;;;27.30;42.70;;;;;;5012935;28;20303;-66
2022/06/21 11:07:42;;;;;;;1.90;1.30;;;27.30;42.80;;;;;;5012592;28;20203;-67
2022/06/21 11:10:12;;;;;;;1.30;1.20;;;27.30;42.90;;;;;;5012461;28;20270;-66
2022/06/21 11:13:01;;;;;;;1.40;1.30;;;27.20;42.90;;;;;;5012523;28;20200;-67
2022/06/21 11:15:39;;;;;;;1.30;1.20;;;27.30;43.10;;;;;;5014135;28;20215;-66
2022/06/21 11:18:13;;;;;;;1.58;1.20;;;27.20;43.00;;;;;;5012818;28;20689;-67
2022/06/21 11:20:42;;;;;;;1.00;1.00;;;27.30;43.00;;;;;;5013768;28;20220;-66
2022/06/21 11:23:17;;;;;;;1.13;1.13;;;27.30;42.90;;;;;;5012354;28;20192;-66
2022/06/21 11:25:48;;;;;;;1.50;1.35;;;27.40;42.90;;;;;;5012332;28;20640;-66
2022/06/21 11:28:21;;;;;;;1.25;1.20;;;27.50;42.80;;;;;;5012488;28;20723;-67
2022/06/21 11:30:50;;;;;;;1.27;1.17;;;27.50;42.80;;;;;;5013480;28;20212;-65
2022/06/21 11:33:21;;;;;;;1.00;1.00;;;27.50;42.70;;;;;;5012353;28;20275;-66
2022/06/21 11:35:51;;;;;;;1.67;1.58;;;27.50;42.70;;;;;;5012122;28;20191;-66
2022/06/21 11:38:32;;;;;;;1.48;1.38;;;27.50;42.60;;;;;;5013532;28;20192;-66
2022/06/21 11:41:05;;;;;;;1.20;1.20;;;27.60;42.80;;;;;;5013438;28;20270;-66
2022/06/21 11:43:50;;;;;;;1.30;1.20;;;27.60;42.70;;;;;;5012274;28;20275;-66
2022/06/21 11:46:22;;;;;;;1.00;1.00;;;27.60;42.80;;;;;;5012275;28;20550;-66
2022/06/21 11:49:22;;;;;;;1.17;1.08;;;27.60;42.80;;;;;;5012300;28;20671;-66
2022/06/21 11:52:10;;;;;;;1.42;1.20;;;27.60;42.80;;;;;;5012236;28;20218;-66
2022/06/21 11:54:40;;;;;;;1.30;1.20;;;27.60;42.70;;;;;;5012504;28;20299;-67
2022/06/21 11:57:22;;;;;;;0.90;0.90;;;27.70;43.40;;;;;;5013917;28;20192;-66
2022/06/21 11:59:55;;;;;;;1.88;1.38;;;27.70;43.40;;;;;;5014751;28;20191;-66
2022/06/21 12:02:25;;;;;;;1.55;1.45;;;27.60;42.70;;;;;;5012673;28;20240;-67
2022/06/21 12:04:56;;;;;;;1.83;1.10;;;27.60;42.70;;;;;;5012685;28;20215;-66
2022/06/21 12:07:24;;;;;;;1.45;1.35;;;27.60;42.70;;;;;;5014078;28;20191;-66
2022/06/21 12:09:55;;;;;;;1.52;1.33;;;27.70;42.80;;;;;;5012747;28;20661;-67
2022/06/21 12:12:32;;;;;;;1.23;1.13;;;27.70;42.80;;;;;;5012262;28;20231;-65
2022/06/21 12:15:48;;;;;;;1.38;1.27;;;27.70;42.90;;;;;;5013652;28;20184;-65
2022/06/21 12:18:16;;;;;;;1.30;1.20;;;27.60;42.90;;;;;;4918086;29;20692;-66
2022/06/21 12:20:46;;;;;;;1.40;1.30;;;27.70;42.90;;;;;;4917499;29;20263;-66
2022/06/21 12:23:19;;;;;;;1.20;1.20;;;27.60;42.90;;;;;;4960689;28;20577;-66
2022/06/21 12:25:46;;;;;;;1.25;1.10;;;27.60;42.90;;;;;;5013307;28;20212;-66
2022/06/21 12:28:16;;;;;;;1.27;1.17;;;27.70;43.00;;;;;;5015504;28;20227;-66
2022/06/21 12:30:43;;;;;;;1.23;1.13;;;27.70;43.00;;;;;;5039009;23;20243;-71
2022/06/21 12:33:12;;;;;;;1.30;1.20;;;27.60;43.00;;;;;;5015555;28;20207;-73
2022/06/21 12:35:46;;;;;;;1.30;1.20;;;27.60;43.10;;;;;;5015346;28;20196;-73
2022/06/21 12:38:14;;;;;;;1.10;1.10;;;27.60;43.10;;;;;;5015210;28;20192;-72
2022/06/21 12:40:47;;;;;;;1.30;1.20;;;27.60;43.20;;;;;;5015052;28;20228;-73
2022/06/21 12:43:22;;;;;;;1.30;1.20;;;27.60;43.30;;;;;;5015099;28;20189;-73
2022/06/21 12:45:59;;;;;;;1.30;1.20;;;27.60;43.30;;;;;;5016344;28;20267;-73
2022/06/21 12:48:57;;;;;;;1.20;1.10;;;27.50;43.40;;;;;;5015433;28;20736;-73
2022/06/21 12:51:29;;;;;;;1.30;1.20;;;27.50;43.40;;;;;;5004009;28;20707;-73
2022/06/21 12:54:09;;;;;;;1.55;1.10;;;27.50;43.60;;;;;;5015585;28;20637;-73
2022/06/21 12:56:43;;;;;;;1.00;1.00;;;27.40;43.60;;;;;;5014906;28;20192;-72
2022/06/21 12:59:24;;;;;;;1.15;1.15;;;27.40;43.70;;;;;;5015006;28;20282;-72
2022/06/21 13:01:55;;;;;;;1.20;1.20;;;27.30;43.70;;;;;;5014845;28;20228;-73
2022/06/21 13:04:47;;;;;;;1.40;1.30;;;27.30;43.70;;;;;;5014945;28;20295;-73
2022/06/21 13:07:23;;;;;;;1.40;1.30;;;27.30;43.80;;;;;;5015893;28;20175;-73
2022/06/21 13:10:07;;;;;;;1.30;1.20;;;27.40;43.90;;;;;;5014973;28;20198;-72
2022/06/21 13:13:13;;;;;;;1.33;1.23;;;27.40;43.90;;;;;;5024695;28;20243;-72
2022/06/21 13:15:48;;;;;;;1.02;0.90;;;27.30;43.90;;;;;;5010803;28;20570;-73
2022/06/21 13:19:00;;;;;;;1.40;1.30;;;27.40;43.90;;;;;;5014646;28;20223;-72
2022/06/21 13:21:34;;;;;;;1.30;1.20;;;27.30;44.00;;;;;;4974631;28;20312;-73
2022/06/21 13:24:09;;;;;;;1.10;1.00;;;27.30;44.10;;;;;;5012754;28;20254;-73
2022/06/21 13:27:04;;;;;;;1.33;1.23;;;27.30;44.10;;;;;;5014373;28;20196;-73
2022/06/21 13:29:37;;;;;;;1.30;1.17;;;27.20;44.20;;;;;;5013224;28;20596;-73